Weather at Shanghai Hongqiao International Airport

Public forecast

Using degrees Celsius for public forecast. Weather courtesy of forecast.io.

Current aviation weather report (METAR) for Shanghai Hongqiao International Airport

Report is more than 6 hours old.

2022/11/14 15:30 (retrieved 2 years ago)

ZSSS 141530Z 33003MPS CAVOK 11/07 Q1021 NOSIG

Aviation forecast (TAF) for Shanghai Hongqiao International Airport

Forecast is more than 12 hours old.

2023/02/22 18:10 (retrieved 1 year ago)

TAF ZSSS 221504Z 2218/2318 02004MPS 6000 BKN020 TX09/2306Z TN05/2221Z